Nicole Leigh Reinauer — WCZ5696 — position and weather

sailwx.info

Track history (hours):
 
Tides and Currents Weather Stations Pressure Air Temp Water Temp Dewpoint Dewpoint Depression Visibility Wind Speed Wind Dir Waves Ship Positions

Nicole Leigh Reinauer

More information available from US FCC via Universal Licensing System and Coast Guard Vessel Documentation Center.

Last reported at 2014-Jul-09 12:31 UTC. Time now 2014-Jul-23 22:15 UTC.
Position N 27°56' W 082°27'.
Warning: this ship's position is 14 days out of date.

Length 167 m; draft 6.6 m.

Type: Wing in ground effect craft. MMSI: 366774330.

Date/timePositionNaut miles runAvg speedWind from/ knotsBaromVisibWave heightAir tempDewpointWater temp
2014-Jul-09 12:31N 27°56' W 082°27'0 0.0
2014-Jul-09 11:33N 27°56' W 082°27'5 4.7
2014-Jul-09 10:33N 27°52' W 082°27'1010.0
2014-Jul-09 09:33N 27°43' W 082°32'1110.6
2014-Jul-09 08:33N 27°37' W 082°42'1110.8
2014-Jul-09 07:33N 27°36' W 082°54'3 3.0
2014-Jul-09 06:34N 27°38' W 082°56'0 0.0
2014-Jul-09 05:33N 27°38' W 082°56'0 0.0
2014-Jul-09 04:33N 27°38' W 082°56'0 0.0
2014-Jul-09 03:33N 27°38' W 082°56'0 0.0
2014-Jul-09 02:33N 27°38' W 082°56'0 0.0
2014-Jul-09 01:06N 27°38' W 082°56'0 0.0
2014-Jul-09 00:33N 27°38' W 082°56'0 0.0
2014-Jul-08 23:23N 27°38' W 082°56'0 0.1
2014-Jul-08 22:33N 27°38' W 082°56'7 7.1
2014-Jul-08 21:33N 27°32' W 083°00'196 5.2
2014-Jul-07 07:33N 25°39' W 080°02'8 8.3
2014-Jul-07 06:33N 25°47' W 080°02'8 8.4
2014-Jul-07 05:33N 25°55' W 080°02'8 8.3
2014-Jul-07 04:33N 26°03' W 080°02'8 8.2
2014-Jul-07 03:33N 26°12' W 080°02'8 7.9
2014-Jul-07 02:33N 26°20' W 080°01'8 7.6
2014-Jul-07 01:33N 26°27' W 080°00'7 7.4
2014-Jul-07 00:33N 26°34' W 079°60'8 8.5
2014-Jul-06 23:33N 26°43' W 079°59'9 8.9
2014-Jul-06 22:33N 26°52' W 079°59'10 9.8
2014-Jul-06 21:34N 27°01' W 080°01'  
2014-Jul-04 03:34N 27°06' W 079°53'1413.8
2014-Jul-04 02:33N 26°53' W 079°51'1313.5
2014-Jul-04 01:33N 26°39' W 079°51'1413.6
2014-Jul-04 00:33N 26°25' W 079°52'1313.1
2014-Jul-03 23:33N 26°12' W 079°54'4013.2
2014-Jul-03 20:33N 25°33' W 079°58'1211.8
2014-Jul-03 19:34N 25°22' W 080°03'204 6.1
2014-Jul-02 10:10N 27°30' W 083°01'6 9.8
2014-Jul-02 09:33N 27°35' W 082°59'1110.8
2014-Jul-02 08:33N 27°37' W 082°47'9 9.2
2014-Jul-02 07:33N 27°39' W 082°37'9 9.1
2014-Jul-02 06:33N 27°47' W 082°32'5 4.7
2014-Jul-02 05:33N 27°52' W 082°33'0 0.0
2014-Jul-02 04:33N 27°52' W 082°33'0 0.0
2014-Jul-02 03:33N 27°52' W 082°33'0 0.0
2014-Jul-02 02:33N 27°52' W 082°33'0 0.0
2014-Jul-02 01:33N 27°52' W 082°33'0 0.0
2014-Jul-02 00:33N 27°52' W 082°33'0 0.0
2014-Jul-01 23:33N 27°52' W 082°33'0 0.0
2014-Jul-01 22:30N 27°52' W 082°33'0 0.0
2014-Jul-01 21:33N 27°52' W 082°33'0 0.0
2014-Jul-01 20:33N 27°52' W 082°33'0 0.0
2014-Jul-01 19:33N 27°52' W 082°33'0 0.0
2014-Jul-01 18:33N 27°52' W 082°33'0 0.0
2014-Jul-01 17:33N 27°52' W 082°33'3 3.1
2014-Jul-01 16:33N 27°49' W 082°34'8 7.6
2014-Jul-01 15:32N 27°41' W 082°34'9 9.5
2014-Jul-01 14:33N 27°36' W 082°44'1010.2
2014-Jul-01 13:32N 27°36' W 082°55'1110.5
2014-Jul-01 12:32N 27°38' W 083°07'408 9.9
2014-Jun-29 19:33N 29°58' W 090°24'2 1.9
2014-Jun-29 18:33N 29°60' W 090°24'0 0.0
2014-Jun-29 17:31N 29°60' W 090°24'0 0.0
2014-Jun-29 16:33N 29°60' W 090°24'0 0.0
2014-Jun-29 13:33N 29°60' W 090°24'0 0.0
2014-Jun-29 12:33N 29°60' W 090°24'  
Track history (hours):
 
Tides and Currents Weather Stations Pressure Air Temp Water Temp Dewpoint Dewpoint Depression Visibility Wind Speed Wind Dir Waves Ship Positions

Nicole Leigh Reinauer

More information available from US FCC via Universal Licensing System and Coast Guard Vessel Documentation Center.

Last reported at 2014-Jul-09 12:31 UTC. Time now 2014-Jul-23 22:15 UTC.
Position N 27°56' W 082°27'.
Warning: this ship's position is 14 days out of date.

Length 167 m; draft 6.6 m.

Type: Wing in ground effect craft. MMSI: 366774330.

Date/timePositionNaut miles runAvg speedWind from/ knotsBaromVisibWave heightAir tempDewpointWater temp
2014-Jul-09 12:31N 27°56' W 082°27'0 0.0
2014-Jul-09 11:33N 27°56' W 082°27'5 4.7
2014-Jul-09 10:33N 27°52' W 082°27'1010.0
2014-Jul-09 09:33N 27°43' W 082°32'1110.6
2014-Jul-09 08:33N 27°37' W 082°42'1110.8
2014-Jul-09 07:33N 27°36' W 082°54'3 3.0
2014-Jul-09 06:34N 27°38' W 082°56'0 0.0
2014-Jul-09 05:33N 27°38' W 082°56'0 0.0
2014-Jul-09 04:33N 27°38' W 082°56'0 0.0
2014-Jul-09 03:33N 27°38' W 082°56'0 0.0
2014-Jul-09 02:33N 27°38' W 082°56'0 0.0
2014-Jul-09 01:06N 27°38' W 082°56'0 0.0
2014-Jul-09 00:33N 27°38' W 082°56'0 0.0
2014-Jul-08 23:23N 27°38' W 082°56'0 0.1
2014-Jul-08 22:33N 27°38' W 082°56'7 7.1
2014-Jul-08 21:33N 27°32' W 083°00'196 5.2
2014-Jul-07 07:33N 25°39' W 080°02'8 8.3
2014-Jul-07 06:33N 25°47' W 080°02'8 8.4
2014-Jul-07 05:33N 25°55' W 080°02'8 8.3
2014-Jul-07 04:33N 26°03' W 080°02'8 8.2
2014-Jul-07 03:33N 26°12' W 080°02'8 7.9
2014-Jul-07 02:33N 26°20' W 080°01'8 7.6
2014-Jul-07 01:33N 26°27' W 080°00'7 7.4
2014-Jul-07 00:33N 26°34' W 079°60'8 8.5
2014-Jul-06 23:33N 26°43' W 079°59'9 8.9
2014-Jul-06 22:33N 26°52' W 079°59'10 9.8
2014-Jul-06 21:34N 27°01' W 080°01'  
2014-Jul-04 03:34N 27°06' W 079°53'1413.8
2014-Jul-04 02:33N 26°53' W 079°51'1313.5
2014-Jul-04 01:33N 26°39' W 079°51'1413.6
2014-Jul-04 00:33N 26°25' W 079°52'1313.1
2014-Jul-03 23:33N 26°12' W 079°54'4013.2
2014-Jul-03 20:33N 25°33' W 079°58'1211.8
2014-Jul-03 19:34N 25°22' W 080°03'204 6.1
2014-Jul-02 10:10N 27°30' W 083°01'6 9.8
2014-Jul-02 09:33N 27°35' W 082°59'1110.8
2014-Jul-02 08:33N 27°37' W 082°47'9 9.2
2014-Jul-02 07:33N 27°39' W 082°37'9 9.1
2014-Jul-02 06:33N 27°47' W 082°32'5 4.7
2014-Jul-02 05:33N 27°52' W 082°33'0 0.0
2014-Jul-02 04:33N 27°52' W 082°33'0 0.0
2014-Jul-02 03:33N 27°52' W 082°33'0 0.0
2014-Jul-02 02:33N 27°52' W 082°33'0 0.0
2014-Jul-02 01:33N 27°52' W 082°33'0 0.0
2014-Jul-02 00:33N 27°52' W 082°33'0 0.0
2014-Jul-01 23:33N 27°52' W 082°33'0 0.0
2014-Jul-01 22:30N 27°52' W 082°33'0 0.0
2014-Jul-01 21:33N 27°52' W 082°33'0 0.0
2014-Jul-01 20:33N 27°52' W 082°33'0 0.0
2014-Jul-01 19:33N 27°52' W 082°33'0 0.0
2014-Jul-01 18:33N 27°52' W 082°33'0 0.0
2014-Jul-01 17:33N 27°52' W 082°33'3 3.1
2014-Jul-01 16:33N 27°49' W 082°34'8 7.6
2014-Jul-01 15:32N 27°41' W 082°34'9 9.5
2014-Jul-01 14:33N 27°36' W 082°44'1010.2
2014-Jul-01 13:32N 27°36' W 082°55'1110.5
2014-Jul-01 12:32N 27°38' W 083°07'408 9.9
2014-Jun-29 19:33N 29°58' W 090°24'2 1.9
2014-Jun-29 18:33N 29°60' W 090°24'0 0.0
2014-Jun-29 17:31N 29°60' W 090°24'0 0.0
2014-Jun-29 16:33N 29°60' W 090°24'0 0.0
2014-Jun-29 13:33N 29°60' W 090°24'0 0.0
2014-Jun-29 12:33N 29°60' W 090°24'  

Dump ship's entire track history